Terminal Aerodrome Forecast
Issued by NWS Blacksburg, VA

Home | Current Version | Previous Version | Text Only | Print | Product List | Glossary On
Versions: 1 2 3 4 5 6 7 8 9 10 11 12 13 14 15 16 17 18 19 20 21 22 23
000
FTUS41 KRNK 200520
TAFDAN
TAF
KDAN 200520Z 2006/2106 VRB03KT P6SM OVC200
     FM201100 05003KT P6SM OVC100
     FM201300 05005KT P6SM OVC050
     FM201500 05005KT P6SM -RASN OVC045
     FM201800 10005KT P6SM BKN080=

USA.gov is the U.S. government's official web portal to all federal, state and local government web resources and services.